Indio, California
Current Conditions -  °F | °C
As of 8:52 PM on Monday 20 Oct 2014 (Local Time) from KTRM Reporting Station
Clear Clear  
Wind Chill: 72°   Ceiling: Unl
Heat Index: 72°   Visibility: 10mi
Dew Point: 55°   Wind: 5mph
Humidity: 55%   Direction: 340°NNW
Pressure: 29.75"   Gusts: NA
Location:  33.72°N, 116.21°W
Report Text: KTRM 210352Z AUTO 34004KT 10SM CLR 22/13 A2975 RMK AO2 SLP076 T02220128 TSNO
Loading
Personal Weather Stations






























Interactive Weather Map
Tropical Storm Tracking
New forecast layout! Learn more

10-Day Weather Forecast

Advertisements
Track Severe Weather on mobile